Aeroporto :
LOGIN :

Iscrizione | Disclaimer

   EN    FR    IT 

 










Sommario :    VFR   VFR Marginale   IFR   IFR Intensivo   IFR Molto Intensivo
Visibilità : 
Base nubi : 
>= 8 km
>= 3000ft
5 / 8 km
1000 / 3000 ft
1500m / 5 km
500 / 1000 ft
800 / 1500m
200 / 500 ft
< 800m
< 200 ft
Simboli :   Temporali  Nebbia  Neve Forte  Precipitazioni Forti  Vento > 20 kt
SIGMETs :   Varie  Temporali  Ghiacco  Turbolenza  Onda orograficha  Ceneri Vulcaniche






- Altitudine del aeroporto : 23 ft
- Codice IATA : XFW


EDHI - Hamburg Finkenwerder

ULTIMO METAR :
  • 270220Z AUTO 25011KT 9999 // OVC008/// 02/01 Q1001

METARs OBSOLETI :
  • 270150Z AUTO 24009KT 9999 // SCT007/// BKN019/// OVC022/// 02/01 Q1001
  • 270120Z AUTO 25009KT 9999 // BKN007/// OVC025/// 02/01 Q1001
  • 270050Z AUTO 25009KT 9999 // BKN007/// BKN027/// OVC043/// 02/01 Q1001
  • 270020Z AUTO 25010KT 9999 // BKN007/// OVC035/// 02/01 Q1001
  • 262350Z AUTO 25009KT 9999 // FEW007/// SCT027/// OVC031/// 02/01 Q1001

Previsioni scadute.



MetMap, La meteo Aeronautica in un colpo d'occhio ! - Copyright ORBIFLY Dicembre 2007 - Disclaimer

ORBIFLY MET'MAP TEAM :

Programmazione e sviluppo : Alexandra Zaïnal
Concezione : Baudouin d'Aumeries
Aiuto per la programmazione : Marc-Olivier Méhu
Supporto tecnico e logistico : Manuel Goepfert
Aiuto per la traduzione : Arnaldo La Scala

Contatto : metmap@orbifly.com




FONTI E CREDITI :

   NOAA